sensor_id;sensor_type;location;lat;lon;timestamp;noise_LAeq;noise_LA_min;noise_LA_max;noise_LA01;noise_LA95
43385;Laerm;28988;48.042;7.584;2023-05-01T00:01:36;88.55;-44.73;100.93;;
43385;Laerm;28988;48.042;7.584;2023-05-01T00:04:01;88.83;-32.64;100.46;;
43385;Laerm;28988;48.042;7.584;2023-05-01T00:06:26;88.98;-32.32;100.58;;
43385;Laerm;28988;48.042;7.584;2023-05-01T00:08:52;89.07;-39.74;100.49;;
43385;Laerm;28988;48.042;7.584;2023-05-01T00:11:17;89.19;-40.31;102.08;;
43385;Laerm;28988;48.042;7.584;2023-05-01T00:13:42;89.27;-43.37;100.84;;
43385;Laerm;28988;48.042;7.584;2023-05-01T00:16:08;89.27;-27.24;100.93;;
43385;Laerm;28988;48.042;7.584;2023-05-01T00:18:33;89.13;-69.37;100.93;;
43385;Laerm;28988;48.042;7.584;2023-05-01T00:20:58;89.15;-27.24;99.81;;
43385;Laerm;28988;48.042;7.584;2023-05-01T00:23:23;89.27;-28.80;101.66;;
43385;Laerm;28988;48.042;7.584;2023-05-01T00:25:48;89.27;-36.57;101.34;;
43385;Laerm;28988;48.042;7.584;2023-05-01T00:28:14;89.23;-35.22;101.08;;
43385;Laerm;28988;48.042;7.584;2023-05-01T00:30:39;89.23;-25.00;101.70;;
43385;Laerm;28988;48.042;7.584;2023-05-01T00:33:04;89.47;-20.44;102.16;;
43385;Laerm;28988;48.042;7.584;2023-05-01T00:35:29;89.55;-26.09;101.87;;
43385;Laerm;28988;48.042;7.584;2023-05-01T00:37:55;89.38;-30.54;100.84;;
43385;Laerm;28988;48.042;7.584;2023-05-01T00:40:20;89.34;-34.33;100.36;;
43385;Laerm;28988;48.042;7.584;2023-05-01T00:42:46;89.38;-31.94;101.30;;
43385;Laerm;28988;48.042;7.584;2023-05-01T00:45:12;89.65;-26.70;102.28;;
43385;Laerm;28988;48.042;7.584;2023-05-01T00:47:38;89.79;-26.16;101.56;;
43385;Laerm;28988;48.042;7.584;2023-05-01T00:50:03;89.88;-31.94;100.87;;
43385;Laerm;28988;48.042;7.584;2023-05-01T00:52:29;90.10;-33.80;102.00;;
43385;Laerm;28988;48.042;7.584;2023-05-01T00:54:54;90.47;-33.34;102.42;;
43385;Laerm;28988;48.042;7.584;2023-05-01T00:57:20;90.71;-27.15;101.54;;
43385;Laerm;28988;48.042;7.584;2023-05-01T00:59:46;90.92;-40.37;101.34;;
43385;Laerm;28988;48.042;7.584;2023-05-01T01:02:11;91.22;-34.77;102.89;;
43385;Laerm;28988;48.042;7.584;2023-05-01T01:04:36;91.65;-39.76;103.12;;
43385;Laerm;28988;48.042;7.584;2023-05-01T01:09:37;92.25;-50.89;102.71;;
43385;Laerm;28988;48.042;7.584;2023-05-01T01:17:41;92.74;-35.84;103.32;;
43385;Laerm;28988;48.042;7.584;2023-05-01T01:22:40;93.30;-19.31;103.09;;
43385;Laerm;28988;48.042;7.584;2023-05-01T01:27:49;93.14;-32.16;103.26;;
43385;Laerm;28988;48.042;7.584;2023-05-01T01:30:40;92.87;-22.80;103.89;;
43385;Laerm;28988;48.042;7.584;2023-05-01T01:33:32;92.93;-29.19;103.09;;
43385;Laerm;28988;48.042;7.584;2023-05-01T01:36:01;92.77;-21.50;104.09;;
43385;Laerm;28988;48.042;7.584;2023-05-01T01:38:41;92.71;-32.94;103.29;;
43385;Laerm;28988;48.042;7.584;2023-05-01T01:41:12;92.78;-28.87;103.03;;
43385;Laerm;28988;48.042;7.584;2023-05-01T01:43:39;92.82;-45.84;102.88;;
43385;Laerm;28988;48.042;7.584;2023-05-01T01:46:07;93.02;-25.02;103.70;;
43385;Laerm;28988;48.042;7.584;2023-05-01T01:48:35;93.05;-33.94;104.00;;
43385;Laerm;28988;48.042;7.584;2023-05-01T01:51:01;92.55;-30.99;102.65;;
43385;Laerm;28988;48.042;7.584;2023-05-01T01:53:28;91.79;-27.60;102.91;;
43385;Laerm;28988;48.042;7.584;2023-05-01T01:55:55;91.44;-45.11;103.64;;
43385;Laerm;28988;48.042;7.584;2023-05-01T01:58:22;91.59;-26.34;102.23;;
43385;Laerm;28988;48.042;7.584;2023-05-01T02:00:50;91.62;-25.88;102.51;;
43385;Laerm;28988;48.042;7.584;2023-05-01T02:03:16;91.80;-42.58;102.71;;
43385;Laerm;28988;48.042;7.584;2023-05-01T02:05:41;91.85;-32.10;102.69;;
43385;Laerm;28988;48.042;7.584;2023-05-01T02:08:07;92.22;-30.85;103.35;;
43385;Laerm;28988;48.042;7.584;2023-05-01T02:10:32;91.92;-18.13;102.74;;
43385;Laerm;28988;48.042;7.584;2023-05-01T02:12:58;91.41;-47.06;102.06;;
43385;Laerm;28988;48.042;7.584;2023-05-01T02:15:25;91.12;-38.73;102.02;;
43385;Laerm;28988;48.042;7.584;2023-05-01T02:17:51;90.85;-35.56;102.68;;
43385;Laerm;28988;48.042;7.584;2023-05-01T02:20:17;90.40;-51.56;102.16;;
43385;Laerm;28988;48.042;7.584;2023-05-01T02:22:43;90.09;-29.25;101.75;;
43385;Laerm;28988;48.042;7.584;2023-05-01T02:25:10;89.90;-48.35;100.30;;
43385;Laerm;28988;48.042;7.584;2023-05-01T02:27:42;89.68;-47.17;101.95;;
43385;Laerm;28988;48.042;7.584;2023-05-01T02:30:08;89.59;-28.65;102.80;;
43385;Laerm;28988;48.042;7.584;2023-05-01T02:32:34;89.45;-34.58;100.86;;
43385;Laerm;28988;48.042;7.584;2023-05-01T02:34:59;89.33;-59.49;100.38;;
43385;Laerm;28988;48.042;7.584;2023-05-01T02:37:25;89.46;-46.34;100.73;;
43385;Laerm;28988;48.042;7.584;2023-05-01T02:39:52;89.90;-34.52;102.86;;
43385;Laerm;28988;48.042;7.584;2023-05-01T02:42:17;90.12;-49.97;101.55;;
43385;Laerm;28988;48.042;7.584;2023-05-01T02:44:47;90.39;-27.79;101.84;;
43385;Laerm;28988;48.042;7.584;2023-05-01T02:47:15;90.53;-33.78;102.18;;
43385;Laerm;28988;48.042;7.584;2023-05-01T02:49:41;90.80;-25.52;102.43;;
43385;Laerm;28988;48.042;7.584;2023-05-01T02:52:07;90.99;-14.88;102.87;;
43385;Laerm;28988;48.042;7.584;2023-05-01T02:54:34;90.96;-24.00;102.80;;
43385;Laerm;28988;48.042;7.584;2023-05-01T02:57:02;90.89;-42.90;102.54;;
43385;Laerm;28988;48.042;7.584;2023-05-01T02:59:27;90.93;-26.19;101.96;;
43385;Laerm;28988;48.042;7.584;2023-05-01T03:01:52;91.24;-34.59;103.30;;
43385;Laerm;28988;48.042;7.584;2023-05-01T03:04:17;91.50;-25.79;102.46;;
43385;Laerm;28988;48.042;7.584;2023-05-01T03:06:42;91.43;-49.89;102.49;;
43385;Laerm;28988;48.042;7.584;2023-05-01T03:09:08;91.46;-21.65;103.93;;
43385;Laerm;28988;48.042;7.584;2023-05-01T03:11:33;91.47;-39.22;104.09;;
43385;Laerm;28988;48.042;7.584;2023-05-01T03:13:58;91.20;-28.53;101.96;;
43385;Laerm;28988;48.042;7.584;2023-05-01T03:16:24;91.21;-37.24;101.67;;
43385;Laerm;28988;48.042;7.584;2023-05-01T03:18:49;91.25;-41.83;102.21;;
43385;Laerm;28988;48.042;7.584;2023-05-01T03:21:14;91.39;-25.81;103.50;;
43385;Laerm;28988;48.042;7.584;2023-05-01T03:23:39;91.27;-40.73;101.94;;
43385;Laerm;28988;48.042;7.584;2023-05-01T03:26:04;91.31;-28.14;102.20;;
43385;Laerm;28988;48.042;7.584;2023-05-01T03:28:31;91.24;-45.17;102.10;;
43385;Laerm;28988;48.042;7.584;2023-05-01T03:30:56;91.39;-21.25;103.61;;
43385;Laerm;28988;48.042;7.584;2023-05-01T03:33:22;91.40;-27.73;103.33;;
43385;Laerm;28988;48.042;7.584;2023-05-01T03:35:47;91.59;-27.64;102.92;;
43385;Laerm;28988;48.042;7.584;2023-05-01T03:38:12;91.76;-31.93;102.46;;
43385;Laerm;28988;48.042;7.584;2023-05-01T03:40:37;91.85;-26.35;102.60;;
43385;Laerm;28988;48.042;7.584;2023-05-01T03:43:02;92.00;-25.49;105.27;;
43385;Laerm;28988;48.042;7.584;2023-05-01T03:45:28;91.90;-42.75;102.67;;
43385;Laerm;28988;48.042;7.584;2023-05-01T03:47:53;91.98;-42.20;102.90;;
43385;Laerm;28988;48.042;7.584;2023-05-01T03:50:18;92.38;-35.17;102.78;;
43385;Laerm;28988;48.042;7.584;2023-05-01T03:52:43;93.09;-40.05;103.18;;
43385;Laerm;28988;48.042;7.584;2023-05-01T03:55:08;93.61;-28.48;103.99;;
43385;Laerm;28988;48.042;7.584;2023-05-01T03:57:33;94.08;-32.42;103.60;;
43385;Laerm;28988;48.042;7.584;2023-05-01T03:59:59;93.64;-27.56;103.26;;
43385;Laerm;28988;48.042;7.584;2023-05-01T04:02:24;93.28;-18.91;105.18;;
43385;Laerm;28988;48.042;7.584;2023-05-01T04:04:49;93.18;-22.28;104.18;;
43385;Laerm;28988;48.042;7.584;2023-05-01T04:07:14;93.21;-45.38;103.24;;
43385;Laerm;28988;48.042;7.584;2023-05-01T04:09:40;92.87;-40.32;103.23;;
43385;Laerm;28988;48.042;7.584;2023-05-01T04:12:05;92.45;-22.78;102.82;;
43385;Laerm;28988;48.042;7.584;2023-05-01T04:14:30;92.24;-28.28;103.98;;
43385;Laerm;28988;48.042;7.584;2023-05-01T04:16:56;92.19;-33.99;102.45;;
43385;Laerm;28988;48.042;7.584;2023-05-01T04:19:21;92.13;-29.94;102.94;;
43385;Laerm;28988;48.042;7.584;2023-05-01T04:21:46;92.01;-54.92;102.77;;
43385;Laerm;28988;48.042;7.584;2023-05-01T04:24:12;91.77;-24.44;103.13;;
43385;Laerm;28988;48.042;7.584;2023-05-01T04:26:37;92.54;-17.77;102.81;;
43385;Laerm;28988;48.042;7.584;2023-05-01T04:29:03;92.78;-45.20;102.97;;
43385;Laerm;28988;48.042;7.584;2023-05-01T04:31:28;93.50;-29.10;103.09;;
43385;Laerm;28988;48.042;7.584;2023-05-01T04:33:53;94.32;-49.22;104.24;;
43385;Laerm;28988;48.042;7.584;2023-05-01T04:36:18;94.76;-47.09;104.65;;
43385;Laerm;28988;48.042;7.584;2023-05-01T04:38:44;95.11;-20.76;104.13;;
43385;Laerm;28988;48.042;7.584;2023-05-01T04:41:09;95.11;-46.14;104.63;;
43385;Laerm;28988;48.042;7.584;2023-05-01T04:43:34;95.11;-27.69;103.79;;
43385;Laerm;28988;48.042;7.584;2023-05-01T04:45:59;94.47;-44.57;105.14;;
43385;Laerm;28988;48.042;7.584;2023-05-01T04:48:24;94.06;-43.83;103.67;;
43385;Laerm;28988;48.042;7.584;2023-05-01T04:50:50;93.69;-41.22;103.39;;
43385;Laerm;28988;48.042;7.584;2023-05-01T04:53:15;93.06;-23.29;102.95;;
43385;Laerm;28988;48.042;7.584;2023-05-01T04:55:40;92.81;-44.87;102.96;;
43385;Laerm;28988;48.042;7.584;2023-05-01T04:58:06;92.78;-43.44;104.00;;
43385;Laerm;28988;48.042;7.584;2023-05-01T05:00:31;92.52;-33.69;102.69;;
43385;Laerm;28988;48.042;7.584;2023-05-01T05:02:56;92.24;-62.79;102.72;;
43385;Laerm;28988;48.042;7.584;2023-05-01T05:05:21;92.00;-41.78;103.90;;
43385;Laerm;28988;48.042;7.584;2023-05-01T05:07:46;91.96;-25.13;103.85;;
43385;Laerm;28988;48.042;7.584;2023-05-01T05:10:12;91.96;-23.12;102.69;;
43385;Laerm;28988;48.042;7.584;2023-05-01T05:12:37;91.65;-30.37;102.61;;
43385;Laerm;28988;48.042;7.584;2023-05-01T05:15:03;91.36;-30.50;102.48;;
43385;Laerm;28988;48.042;7.584;2023-05-01T05:17:28;91.24;-16.87;103.51;;
43385;Laerm;28988;48.042;7.584;2023-05-01T05:19:53;91.04;-24.10;102.60;;
43385;Laerm;28988;48.042;7.584;2023-05-01T05:22:18;90.57;-40.13;102.04;;
43385;Laerm;28988;48.042;7.584;2023-05-01T05:24:44;90.18;-29.25;101.39;;
43385;Laerm;28988;48.042;7.584;2023-05-01T05:27:10;89.90;-21.59;102.64;;
43385;Laerm;28988;48.042;7.584;2023-05-01T05:29:36;89.61;-44.37;101.28;;
43385;Laerm;28988;48.042;7.584;2023-05-01T05:32:01;89.46;-23.32;101.39;;
43385;Laerm;28988;48.042;7.584;2023-05-01T05:34:26;89.45;-37.78;100.72;;
43385;Laerm;28988;48.042;7.584;2023-05-01T05:36:51;89.33;-24.09;100.97;;
43385;Laerm;28988;48.042;7.584;2023-05-01T05:39:16;89.28;-38.95;101.98;;
43385;Laerm;28988;48.042;7.584;2023-05-01T05:41:42;88.98;-20.43;101.03;;
43385;Laerm;28988;48.042;7.584;2023-05-01T05:44:07;88.30;-26.45;99.64;;
43385;Laerm;28988;48.042;7.584;2023-05-01T05:46:32;87.65;-34.84;99.45;;
43385;Laerm;28988;48.042;7.584;2023-05-01T05:48:57;87.19;-27.39;100.92;;
43385;Laerm;28988;48.042;7.584;2023-05-01T05:51:22;86.87;-35.87;98.49;;
43385;Laerm;28988;48.042;7.584;2023-05-01T05:53:47;86.57;-30.14;97.48;;
43385;Laerm;28988;48.042;7.584;2023-05-01T05:56:13;86.37;-41.27;97.26;;
43385;Laerm;28988;48.042;7.584;2023-05-01T05:58:38;86.22;-38.72;97.16;;
43385;Laerm;28988;48.042;7.584;2023-05-01T06:01:03;86.36;-21.36;98.21;;
43385;Laerm;28988;48.042;7.584;2023-05-01T06:03:30;86.60;-28.79;97.14;;
43385;Laerm;28988;48.042;7.584;2023-05-01T06:05:56;86.71;-27.75;98.89;;
43385;Laerm;28988;48.042;7.584;2023-05-01T06:08:21;86.74;-33.66;97.54;;
43385;Laerm;28988;48.042;7.584;2023-05-01T06:10:46;86.92;-35.84;101.20;;
43385;Laerm;28988;48.042;7.584;2023-05-01T06:13:11;86.90;-62.27;99.82;;
43385;Laerm;28988;48.042;7.584;2023-05-01T06:15:38;86.78;-49.45;98.09;;
43385;Laerm;28988;48.042;7.584;2023-05-01T06:18:03;86.83;-27.35;98.45;;
43385;Laerm;28988;48.042;7.584;2023-05-01T06:20:29;86.81;-23.49;101.39;;
43385;Laerm;28988;48.042;7.584;2023-05-01T06:22:54;86.86;-30.20;98.65;;
43385;Laerm;28988;48.042;7.584;2023-05-01T06:25:20;86.63;-20.25;97.78;;
43385;Laerm;28988;48.042;7.584;2023-05-01T06:27:45;86.53;-36.74;98.12;;
43385;Laerm;28988;48.042;7.584;2023-05-01T06:30:10;86.50;-23.04;98.72;;
43385;Laerm;28988;48.042;7.584;2023-05-01T06:32:36;86.38;-46.21;99.84;;
43385;Laerm;28988;48.042;7.584;2023-05-01T06:35:01;86.27;-20.27;98.22;;
43385;Laerm;28988;48.042;7.584;2023-05-01T06:37:26;86.10;-37.45;97.46;;
43385;Laerm;28988;48.042;7.584;2023-05-01T06:39:51;86.04;-36.67;98.07;;
43385;Laerm;28988;48.042;7.584;2023-05-01T06:42:17;86.05;-39.98;99.34;;
43385;Laerm;28988;48.042;7.584;2023-05-01T06:44:42;86.38;-30.20;97.73;;
43385;Laerm;28988;48.042;7.584;2023-05-01T06:47:07;86.59;-41.42;98.85;;
43385;Laerm;28988;48.042;7.584;2023-05-01T06:49:32;86.77;-33.82;99.71;;
43385;Laerm;28988;48.042;7.584;2023-05-01T06:51:58;87.00;-23.80;99.45;;
43385;Laerm;28988;48.042;7.584;2023-05-01T06:54:23;87.11;-40.51;98.85;;
43385;Laerm;28988;48.042;7.584;2023-05-01T06:56:48;87.21;-40.01;99.01;;
43385;Laerm;28988;48.042;7.584;2023-05-01T06:59:13;87.34;-46.33;97.90;;
43385;Laerm;28988;48.042;7.584;2023-05-01T07:01:38;87.21;-18.96;99.66;;
43385;Laerm;28988;48.042;7.584;2023-05-01T07:04:03;87.14;-29.12;100.51;;
43385;Laerm;28988;48.042;7.584;2023-05-01T07:06:29;85.99;-46.93;98.73;;
43385;Laerm;28988;48.042;7.584;2023-05-01T07:08:55;85.43;-37.04;96.84;;
43385;Laerm;28988;48.042;7.584;2023-05-01T07:11:20;85.36;-30.89;96.10;;
43385;Laerm;28988;48.042;7.584;2023-05-01T07:13:45;87.42;-52.22;102.18;;
43385;Laerm;28988;48.042;7.584;2023-05-01T07:16:10;87.98;-39.93;100.18;;
43385;Laerm;28988;48.042;7.584;2023-05-01T07:18:35;87.72;-32.05;98.84;;
43385;Laerm;28988;48.042;7.584;2023-05-01T07:21:01;87.34;-36.67;98.26;;
43385;Laerm;28988;48.042;7.584;2023-05-01T07:23:27;87.25;-40.24;100.90;;
43385;Laerm;28988;48.042;7.584;2023-05-01T07:25:52;87.33;-37.32;98.98;;
43385;Laerm;28988;48.042;7.584;2023-05-01T07:28:17;87.30;-52.22;100.53;;
43385;Laerm;28988;48.042;7.584;2023-05-01T07:30:44;87.19;-20.50;99.67;;
43385;Laerm;28988;48.042;7.584;2023-05-01T07:33:09;87.13;-35.31;99.43;;
43385;Laerm;28988;48.042;7.584;2023-05-01T07:35:35;86.66;-35.31;97.25;;
43385;Laerm;28988;48.042;7.584;2023-05-01T07:38:00;86.15;-34.30;99.37;;
43385;Laerm;28988;48.042;7.584;2023-05-01T07:40:26;85.67;-38.61;98.77;;
43385;Laerm;28988;48.042;7.584;2023-05-01T07:42:51;85.16;-59.49;96.81;;
43385;Laerm;28988;48.042;7.584;2023-05-01T07:45:16;84.94;-38.65;96.09;;
43385;Laerm;28988;48.042;7.584;2023-05-01T07:47:42;84.84;-41.93;98.37;;
43385;Laerm;28988;48.042;7.584;2023-05-01T07:50:10;84.69;-32.50;96.30;;
43385;Laerm;28988;48.042;7.584;2023-05-01T07:52:36;84.51;-33.10;95.76;;
43385;Laerm;28988;48.042;7.584;2023-05-01T07:55:02;84.42;-53.40;96.35;;
43385;Laerm;28988;48.042;7.584;2023-05-01T07:57:27;84.43;-45.84;95.26;;
43385;Laerm;28988;48.042;7.584;2023-05-01T07:59:53;84.45;-35.85;96.24;;
43385;Laerm;28988;48.042;7.584;2023-05-01T08:02:19;84.42;-57.68;95.74;;
43385;Laerm;28988;48.042;7.584;2023-05-01T08:04:44;84.36;-48.61;95.67;;
43385;Laerm;28988;48.042;7.584;2023-05-01T08:07:11;84.35;-57.68;95.79;;
43385;Laerm;28988;48.042;7.584;2023-05-01T08:09:37;84.36;-57.68;95.76;;
43385;Laerm;28988;48.042;7.584;2023-05-01T08:12:02;84.35;-23.73;95.52;;
43385;Laerm;28988;48.042;7.584;2023-05-01T08:14:27;84.35;-23.73;95.86;;
43385;Laerm;28988;48.042;7.584;2023-05-01T08:16:53;84.34;-23.73;95.64;;
43385;Laerm;28988;48.042;7.584;2023-05-01T08:19:19;84.36;-47.50;95.55;;
43385;Laerm;28988;48.042;7.584;2023-05-01T08:21:44;84.35;-37.58;96.18;;
43385;Laerm;28988;48.042;7.584;2023-05-01T08:24:09;84.33;-23.73;95.33;;
43385;Laerm;28988;48.042;7.584;2023-05-01T08:26:35;84.33;-57.68;95.18;;
43385;Laerm;28988;48.042;7.584;2023-05-01T08:29:00;84.33;-23.73;95.61;;
43385;Laerm;28988;48.042;7.584;2023-05-01T08:31:25;84.32;-28.29;95.47;;
43385;Laerm;28988;48.042;7.584;2023-05-01T08:33:50;84.32;-23.73;94.95;;
43385;Laerm;28988;48.042;7.584;2023-05-01T08:36:15;84.30;-23.73;95.85;;
43385;Laerm;28988;48.042;7.584;2023-05-01T08:38:41;84.30;-46.17;95.47;;
43385;Laerm;28988;48.042;7.584;2023-05-01T08:41:06;84.30;-23.85;95.52;;
43385;Laerm;28988;48.042;7.584;2023-05-01T08:43:32;84.33;-28.29;96.04;;
43385;Laerm;28988;48.042;7.584;2023-05-01T08:45:58;84.33;-22.63;95.33;;
43385;Laerm;28988;48.042;7.584;2023-05-01T08:48:24;84.31;-57.68;94.93;;
43385;Laerm;28988;48.042;7.584;2023-05-01T08:50:49;84.33;-23.73;95.15;;
43385;Laerm;28988;48.042;7.584;2023-05-01T08:53:16;84.32;-28.29;95.81;;
43385;Laerm;28988;48.042;7.584;2023-05-01T08:55:43;84.31;-23.73;95.16;;
43385;Laerm;28988;48.042;7.584;2023-05-01T08:58:08;84.31;-24.69;95.79;;
43385;Laerm;28988;48.042;7.584;2023-05-01T09:00:36;84.31;-57.68;95.82;;
43385;Laerm;28988;48.042;7.584;2023-05-01T09:03:02;84.29;-41.54;94.99;;
43385;Laerm;28988;48.042;7.584;2023-05-01T09:05:29;84.28;-23.73;94.96;;
43385;Laerm;28988;48.042;7.584;2023-05-01T09:07:55;84.24;-57.68;94.52;;
43385;Laerm;28988;48.042;7.584;2023-05-01T09:10:22;84.25;-28.29;94.90;;
43385;Laerm;28988;48.042;7.584;2023-05-01T09:12:48;84.23;-57.68;95.03;;
43385;Laerm;28988;48.042;7.584;2023-05-01T09:15:16;84.21;-57.68;94.36;;
43385;Laerm;28988;48.042;7.584;2023-05-01T09:17:41;84.20;-57.68;94.56;;
43385;Laerm;28988;48.042;7.584;2023-05-01T09:20:08;84.19;-57.68;94.29;;
43385;Laerm;28988;48.042;7.584;2023-05-01T09:22:34;84.19;-26.87;94.15;;
43385;Laerm;28988;48.042;7.584;2023-05-01T09:24:59;84.18;-57.68;94.26;;
43385;Laerm;28988;48.042;7.584;2023-05-01T09:27:28;84.18;-57.68;94.11;;
43385;Laerm;28988;48.042;7.584;2023-05-01T09:29:57;84.18;-27.59;93.31;;
43385;Laerm;28988;48.042;7.584;2023-05-01T09:32:23;84.18;-23.73;93.99;;
43385;Laerm;28988;48.042;7.584;2023-05-01T09:34:49;84.18;-57.68;93.66;;
43385;Laerm;28988;48.042;7.584;2023-05-01T09:40:13;84.17;-33.10;93.58;;
43385;Laerm;28988;48.042;7.584;2023-05-01T09:42:37;84.17;-57.68;94.55;;
43385;Laerm;28988;48.042;7.584;2023-05-01T09:45:04;84.16;-28.29;93.53;;
43385;Laerm;28988;48.042;7.584;2023-05-01T09:47:29;84.17;-57.68;93.70;;
43385;Laerm;28988;48.042;7.584;2023-05-01T09:49:55;84.18;-33.10;93.86;;
43385;Laerm;28988;48.042;7.584;2023-05-01T09:52:21;84.18;-57.68;95.00;;
43385;Laerm;28988;48.042;7.584;2023-05-01T09:54:47;84.19;-35.14;93.64;;
43385;Laerm;28988;48.042;7.584;2023-05-01T09:57:12;84.19;-28.29;93.70;;
43385;Laerm;28988;48.042;7.584;2023-05-01T09:59:37;84.19;-57.68;94.01;;
43385;Laerm;28988;48.042;7.584;2023-05-01T10:02:03;84.19;-22.68;93.85;;
43385;Laerm;28988;48.042;7.584;2023-05-01T10:04:29;84.17;-40.41;94.66;;
43385;Laerm;28988;48.042;7.584;2023-05-01T10:06:54;84.18;-33.10;94.09;;
43385;Laerm;28988;48.042;7.584;2023-05-01T10:09:28;84.17;-28.29;93.84;;
43385;Laerm;28988;48.042;7.584;2023-05-01T10:11:54;84.17;-57.68;93.84;;
43385;Laerm;28988;48.042;7.584;2023-05-01T10:14:21;84.17;-33.10;93.17;;
43385;Laerm;28988;48.042;7.584;2023-05-01T10:16:48;84.17;-57.68;94.15;;
43385;Laerm;28988;48.042;7.584;2023-05-01T10:19:14;84.17;-22.86;93.80;;
43385;Laerm;28988;48.042;7.584;2023-05-01T10:21:40;84.17;-34.16;93.66;;
43385;Laerm;28988;48.042;7.584;2023-05-01T10:24:06;84.17;-57.68;93.87;;
43385;Laerm;28988;48.042;7.584;2023-05-01T10:26:34;84.18;-57.68;93.91;;
43385;Laerm;28988;48.042;7.584;2023-05-01T10:28:59;84.16;-34.16;93.39;;
43385;Laerm;28988;48.042;7.584;2023-05-01T10:31:25;84.16;-28.29;93.85;;
43385;Laerm;28988;48.042;7.584;2023-05-01T10:33:51;84.16;-57.68;93.86;;
43385;Laerm;28988;48.042;7.584;2023-05-01T10:36:18;84.16;-24.69;94.13;;
43385;Laerm;28988;48.042;7.584;2023-05-01T10:38:45;84.16;-57.68;93.53;;
43385;Laerm;28988;48.042;7.584;2023-05-01T10:41:12;84.17;-23.73;93.47;;
43385;Laerm;28988;48.042;7.584;2023-05-01T10:43:38;84.16;-33.10;93.76;;
43385;Laerm;28988;48.042;7.584;2023-05-01T10:53:38;84.14;-57.68;93.26;;
43385;Laerm;28988;48.042;7.584;2023-05-01T10:56:04;84.15;-39.53;93.35;;
43385;Laerm;28988;48.042;7.584;2023-05-01T11:01:26;84.15;-35.86;93.29;;
43385;Laerm;28988;48.042;7.584;2023-05-01T11:03:52;84.15;-57.68;93.18;;
43385;Laerm;28988;48.042;7.584;2023-05-01T11:06:17;84.15;-23.73;93.53;;
43385;Laerm;28988;48.042;7.584;2023-05-01T11:08:42;84.16;-28.29;93.49;;
43385;Laerm;28988;48.042;7.584;2023-05-01T11:13:59;84.14;-57.68;93.31;;
43385;Laerm;28988;48.042;7.584;2023-05-01T11:19:02;84.13;-27.40;93.45;;
43385;Laerm;28988;48.042;7.584;2023-05-01T11:21:30;84.15;-33.10;93.18;;
43385;Laerm;28988;48.042;7.584;2023-05-01T11:24:00;84.13;-23.58;93.62;;
43385;Laerm;28988;48.042;7.584;2023-05-01T11:26:29;84.13;-24.78;93.08;;
43385;Laerm;28988;48.042;7.584;2023-05-01T11:28:56;84.14;-33.10;93.47;;
43385;Laerm;28988;48.042;7.584;2023-05-01T11:31:21;84.14;-29.38;93.09;;
43385;Laerm;28988;48.042;7.584;2023-05-01T11:33:46;84.13;-31.46;93.27;;
43385;Laerm;28988;48.042;7.584;2023-05-01T11:36:12;84.14;-28.29;93.23;;
43385;Laerm;28988;48.042;7.584;2023-05-01T11:38:38;84.14;-57.68;93.21;;
43385;Laerm;28988;48.042;7.584;2023-05-01T11:41:13;84.15;-57.68;93.89;;
43385;Laerm;28988;48.042;7.584;2023-05-01T11:43:47;84.16;-33.10;93.85;;
43385;Laerm;28988;48.042;7.584;2023-05-01T11:46:13;84.16;-57.68;93.53;;
43385;Laerm;28988;48.042;7.584;2023-05-01T11:48:38;84.17;-57.68;93.86;;
43385;Laerm;28988;48.042;7.584;2023-05-01T11:51:10;84.19;-57.68;94.06;;
43385;Laerm;28988;48.042;7.584;2023-05-01T11:53:36;84.17;-28.29;94.39;;
43385;Laerm;28988;48.042;7.584;2023-05-01T11:56:01;84.17;-57.68;93.36;;
43385;Laerm;28988;48.042;7.584;2023-05-01T11:58:31;84.17;-57.68;94.16;;
43385;Laerm;28988;48.042;7.584;2023-05-01T12:00:57;84.14;-20.71;93.28;;
43385;Laerm;28988;48.042;7.584;2023-05-01T12:03:23;84.15;-20.71;93.13;;
43385;Laerm;28988;48.042;7.584;2023-05-01T12:05:48;84.16;-29.88;93.18;;
43385;Laerm;28988;48.042;7.584;2023-05-01T12:08:14;84.17;-23.67;94.10;;
43385;Laerm;28988;48.042;7.584;2023-05-01T12:10:42;84.17;-20.71;93.78;;
43385;Laerm;28988;48.042;7.584;2023-05-01T12:13:08;84.15;-22.68;93.71;;
43385;Laerm;28988;48.042;7.584;2023-05-01T12:15:34;84.14;-20.71;93.31;;
43385;Laerm;28988;48.042;7.584;2023-05-01T12:18:06;84.13;-20.71;93.13;;
43385;Laerm;28988;48.042;7.584;2023-05-01T12:20:38;84.13;-31.77;93.67;;
43385;Laerm;28988;48.042;7.584;2023-05-01T12:23:04;84.13;-24.69;93.45;;
43385;Laerm;28988;48.042;7.584;2023-05-01T12:25:30;84.14;-40.41;93.77;;
43385;Laerm;28988;48.042;7.584;2023-05-01T12:27:57;84.13;-20.71;93.13;;
43385;Laerm;28988;48.042;7.584;2023-05-01T12:30:24;84.13;-47.13;93.39;;
43385;Laerm;28988;48.042;7.584;2023-05-01T12:32:50;84.14;-20.71;93.54;;
43385;Laerm;28988;48.042;7.584;2023-05-01T12:35:16;84.14;-21.66;93.31;;
43385;Laerm;28988;48.042;7.584;2023-05-01T12:37:41;84.14;-20.71;93.13;;
43385;Laerm;28988;48.042;7.584;2023-05-01T12:40:11;84.15;-20.71;93.22;;
43385;Laerm;28988;48.042;7.584;2023-05-01T12:42:37;84.14;-20.71;94.15;;
43385;Laerm;28988;48.042;7.584;2023-05-01T12:45:02;84.16;-20.71;93.49;;
43385;Laerm;28988;48.042;7.584;2023-05-01T12:47:34;84.15;-33.10;93.48;;
43385;Laerm;28988;48.042;7.584;2023-05-01T12:50:00;84.16;-57.68;93.67;;
43385;Laerm;28988;48.042;7.584;2023-05-01T12:52:26;84.17;-57.68;94.20;;
43385;Laerm;28988;48.042;7.584;2023-05-01T12:55:00;84.15;-57.68;93.18;;
43385;Laerm;28988;48.042;7.584;2023-05-01T12:57:25;84.18;-57.68;94.73;;
43385;Laerm;28988;48.042;7.584;2023-05-01T12:59:56;84.19;-33.10;93.56;;
43385;Laerm;28988;48.042;7.584;2023-05-01T13:02:25;84.20;-28.29;94.20;;
43385;Laerm;28988;48.042;7.584;2023-05-01T13:04:53;84.20;-57.68;94.00;;
43385;Laerm;28988;48.042;7.584;2023-05-01T13:07:28;84.19;-33.10;93.97;;
43385;Laerm;28988;48.042;7.584;2023-05-01T13:09:54;84.22;-57.68;94.20;;
43385;Laerm;28988;48.042;7.584;2023-05-01T13:12:21;84.22;-23.73;94.79;;
43385;Laerm;28988;48.042;7.584;2023-05-01T13:14:46;84.22;-22.63;94.48;;
43385;Laerm;28988;48.042;7.584;2023-05-01T13:17:12;84.23;-31.18;94.90;;
43385;Laerm;28988;48.042;7.584;2023-05-01T13:19:45;84.22;-33.10;94.67;;
43385;Laerm;28988;48.042;7.584;2023-05-01T13:22:16;84.22;-31.93;95.25;;
43385;Laerm;28988;48.042;7.584;2023-05-01T13:24:42;84.22;-33.10;94.66;;
43385;Laerm;28988;48.042;7.584;2023-05-01T13:27:10;84.20;-23.73;94.09;;
43385;Laerm;28988;48.042;7.584;2023-05-01T13:29:36;84.21;-57.68;94.00;;
43385;Laerm;28988;48.042;7.584;2023-05-01T13:32:05;84.21;-34.16;95.05;;
43385;Laerm;28988;48.042;7.584;2023-05-01T13:34:31;84.17;-33.10;94.71;;
43385;Laerm;28988;48.042;7.584;2023-05-01T13:36:57;84.17;-22.68;93.65;;
43385;Laerm;28988;48.042;7.584;2023-05-01T13:39:23;84.18;-22.63;94.23;;
43385;Laerm;28988;48.042;7.584;2023-05-01T13:41:51;84.16;-57.68;93.93;;
43385;Laerm;28988;48.042;7.584;2023-05-01T13:44:17;84.15;-28.29;94.18;;
43385;Laerm;28988;48.042;7.584;2023-05-01T13:46:43;84.16;-34.16;93.47;;
43385;Laerm;28988;48.042;7.584;2023-05-01T13:49:08;84.16;-57.68;93.65;;
43385;Laerm;28988;48.042;7.584;2023-05-01T13:51:34;84.16;-57.68;93.53;;
43385;Laerm;28988;48.042;7.584;2023-05-01T13:54:01;84.15;-57.68;92.99;;